sensor_id;sensor_type;location;lat;lon;timestamp;pressure;altitude;pressure_sealevel;temperature;humidity
52735;BME280;38631;47.572;10.704;2023-04-01T00:01:02;91441.69;;;6.16;80.73
52735;BME280;38631;47.572;10.704;2023-04-01T00:03:28;91430.34;;;6.07;79.74
52735;BME280;38631;47.572;10.704;2023-04-01T00:05:55;91429.25;;;5.99;77.40
52735;BME280;38631;47.572;10.704;2023-04-01T00:08:21;91433.66;;;6.21;77.05
52735;BME280;38631;47.572;10.704;2023-04-01T00:10:46;91434.69;;;6.12;78.54
52735;BME280;38631;47.572;10.704;2023-04-01T00:13:12;91429.75;;;6.10;77.20
52735;BME280;38631;47.572;10.704;2023-04-01T00:15:37;91437.50;;;6.15;77.76
52735;BME280;38631;47.572;10.704;2023-04-01T00:18:03;91439.47;;;6.01;79.66
52735;BME280;38631;47.572;10.704;2023-04-01T00:20:28;91439.06;;;6.16;79.54
52735;BME280;38631;47.572;10.704;2023-04-01T00:22:54;91431.25;;;6.02;78.58
52735;BME280;38631;47.572;10.704;2023-04-01T00:25:20;91431.75;;;6.13;78.65
52735;BME280;38631;47.572;10.704;2023-04-01T00:27:45;91418.59;;;6.13;76.61
52735;BME280;38631;47.572;10.704;2023-04-01T00:30:11;91419.16;;;6.01;77.50
52735;BME280;38631;47.572;10.704;2023-04-01T00:32:36;91423.25;;;6.16;77.63
52735;BME280;38631;47.572;10.704;2023-04-01T00:35:02;91433.34;;;6.23;77.65
52735;BME280;38631;47.572;10.704;2023-04-01T00:37:28;91428.72;;;6.28;77.09
52735;BME280;38631;47.572;10.704;2023-04-01T00:39:54;91432.84;;;6.12;77.50
52735;BME280;38631;47.572;10.704;2023-04-01T00:42:19;91413.66;;;6.20;77.48
52735;BME280;38631;47.572;10.704;2023-04-01T00:44:49;91415.56;;;6.37;76.54
52735;BME280;38631;47.572;10.704;2023-04-01T00:47:15;91419.28;;;6.36;77.32
52735;BME280;38631;47.572;10.704;2023-04-01T00:49:44;91406.28;;;6.40;77.67
52735;BME280;38631;47.572;10.704;2023-04-01T00:52:12;91417.97;;;6.16;76.97
52735;BME280;38631;47.572;10.704;2023-04-01T00:54:40;91426.84;;;6.29;78.81
52735;BME280;38631;47.572;10.704;2023-04-01T00:57:19;91434.13;;;6.23;78.70
52735;BME280;38631;47.572;10.704;2023-04-01T00:59:48;91424.69;;;6.31;76.38
52735;BME280;38631;47.572;10.704;2023-04-01T01:02:15;91429.19;;;6.39;79.06
52735;BME280;38631;47.572;10.704;2023-04-01T01:04:41;91428.22;;;6.26;76.52
52735;BME280;38631;47.572;10.704;2023-04-01T01:07:23;91424.41;;;6.33;77.06
52735;BME280;38631;47.572;10.704;2023-04-01T01:10:17;91426.72;;;6.34;76.52
52735;BME280;38631;47.572;10.704;2023-04-01T01:21:12;91431.06;;;6.30;77.39
52735;BME280;38631;47.572;10.704;2023-04-01T01:29:01;91436.63;;;6.28;79.02
52735;BME280;38631;47.572;10.704;2023-04-01T01:31:37;91437.88;;;6.31;79.22
52735;BME280;38631;47.572;10.704;2023-04-01T01:34:36;91434.81;;;6.38;79.09
52735;BME280;38631;47.572;10.704;2023-04-01T01:37:14;91425.25;;;6.19;79.38
52735;BME280;38631;47.572;10.704;2023-04-01T01:39:43;91438.63;;;6.23;78.74
52735;BME280;38631;47.572;10.704;2023-04-01T01:42:11;91418.31;;;6.23;79.65
52735;BME280;38631;47.572;10.704;2023-04-01T01:44:38;91422.50;;;6.24;79.66
52735;BME280;38631;47.572;10.704;2023-04-01T01:47:05;91419.25;;;6.27;78.21
52735;BME280;38631;47.572;10.704;2023-04-01T01:49:32;91426.06;;;6.28;78.98
52735;BME280;38631;47.572;10.704;2023-04-01T01:51:58;91425.16;;;6.33;79.33
52735;BME280;38631;47.572;10.704;2023-04-01T01:54:24;91420.31;;;6.26;80.07
52735;BME280;38631;47.572;10.704;2023-04-01T01:56:55;91427.13;;;6.19;80.58
52735;BME280;38631;47.572;10.704;2023-04-01T01:59:26;91428.16;;;6.09;82.25
52735;BME280;38631;47.572;10.704;2023-04-01T02:01:55;91423.69;;;6.10;83.30
52735;BME280;38631;47.572;10.704;2023-04-01T02:04:21;91430.78;;;6.00;83.76
52735;BME280;38631;47.572;10.704;2023-04-01T02:07:00;91440.69;;;5.95;84.24
52735;BME280;38631;47.572;10.704;2023-04-01T02:09:27;91436.91;;;5.87;86.43
52735;BME280;38631;47.572;10.704;2023-04-01T02:11:57;91443.22;;;5.86;85.61
52735;BME280;38631;47.572;10.704;2023-04-01T02:14:36;91433.00;;;5.84;85.74
52735;BME280;38631;47.572;10.704;2023-04-01T02:17:15;91432.78;;;5.95;85.94
52735;BME280;38631;47.572;10.704;2023-04-01T02:19:53;91440.16;;;5.61;87.75
52735;BME280;38631;47.572;10.704;2023-04-01T02:22:22;91425.53;;;5.78;85.59
52735;BME280;38631;47.572;10.704;2023-04-01T02:24:52;91424.75;;;5.77;85.23
52735;BME280;38631;47.572;10.704;2023-04-01T02:27:19;91419.09;;;5.93;83.78
52735;BME280;38631;47.572;10.704;2023-04-01T02:29:44;91423.59;;;5.92;84.19
52735;BME280;38631;47.572;10.704;2023-04-01T02:32:10;91443.97;;;6.09;84.24
52735;BME280;38631;47.572;10.704;2023-04-01T02:34:37;91434.69;;;5.80;85.18
52735;BME280;38631;47.572;10.704;2023-04-01T02:37:04;91435.72;;;5.71;85.72
52735;BME280;38631;47.572;10.704;2023-04-01T02:39:29;91427.75;;;5.84;85.21
52735;BME280;38631;47.572;10.704;2023-04-01T02:41:55;91434.81;;;5.98;85.65
52735;BME280;38631;47.572;10.704;2023-04-01T02:44:20;91425.28;;;5.88;86.43
52735;BME280;38631;47.572;10.704;2023-04-01T02:46:45;91426.53;;;5.91;84.67
52735;BME280;38631;47.572;10.704;2023-04-01T02:49:11;91423.06;;;5.81;85.34
52735;BME280;38631;47.572;10.704;2023-04-01T02:51:36;91417.66;;;5.87;84.95
52735;BME280;38631;47.572;10.704;2023-04-01T02:54:02;91414.50;;;5.98;84.01
52735;BME280;38631;47.572;10.704;2023-04-01T02:56:27;91416.47;;;5.93;83.08
52735;BME280;38631;47.572;10.704;2023-04-01T02:58:53;91420.47;;;5.90;83.06
52735;BME280;38631;47.572;10.704;2023-04-01T03:01:19;91422.28;;;5.81;83.89
52735;BME280;38631;47.572;10.704;2023-04-01T03:03:45;91432.66;;;5.77;83.72
52735;BME280;38631;47.572;10.704;2023-04-01T03:06:13;91438.31;;;5.93;82.91
52735;BME280;38631;47.572;10.704;2023-04-01T03:08:39;91444.47;;;5.89;81.56
52735;BME280;38631;47.572;10.704;2023-04-01T03:11:04;91457.13;;;6.00;81.56
52735;BME280;38631;47.572;10.704;2023-04-01T03:13:30;91441.75;;;5.94;79.80
52735;BME280;38631;47.572;10.704;2023-04-01T03:15:55;91440.00;;;5.89;81.03
52735;BME280;38631;47.572;10.704;2023-04-01T03:18:21;91442.63;;;5.89;80.78
52735;BME280;38631;47.572;10.704;2023-04-01T03:20:46;91451.69;;;5.97;80.32
52735;BME280;38631;47.572;10.704;2023-04-01T03:23:12;91453.88;;;5.72;82.56
52735;BME280;38631;47.572;10.704;2023-04-01T03:25:37;91454.34;;;5.74;82.23
52735;BME280;38631;47.572;10.704;2023-04-01T03:28:03;91464.41;;;5.72;82.48
52735;BME280;38631;47.572;10.704;2023-04-01T03:30:28;91458.94;;;5.69;84.04
52735;BME280;38631;47.572;10.704;2023-04-01T03:32:55;91452.53;;;5.61;83.99
52735;BME280;38631;47.572;10.704;2023-04-01T03:35:21;91458.53;;;5.75;83.80
52735;BME280;38631;47.572;10.704;2023-04-01T03:37:46;91455.13;;;5.75;82.64
52735;BME280;38631;47.572;10.704;2023-04-01T03:40:11;91457.78;;;5.83;81.77
52735;BME280;38631;47.572;10.704;2023-04-01T03:42:37;91454.16;;;5.71;80.46
52735;BME280;38631;47.572;10.704;2023-04-01T03:45:03;91455.94;;;5.61;81.27
52735;BME280;38631;47.572;10.704;2023-04-01T03:47:29;91439.13;;;5.71;80.36
52735;BME280;38631;47.572;10.704;2023-04-01T03:49:54;91457.31;;;5.81;79.48
52735;BME280;38631;47.572;10.704;2023-04-01T03:52:20;91441.69;;;5.85;78.58
52735;BME280;38631;47.572;10.704;2023-04-01T03:54:45;91463.66;;;6.03;77.32
52735;BME280;38631;47.572;10.704;2023-04-01T03:57:11;91452.09;;;5.90;77.39
52735;BME280;38631;47.572;10.704;2023-04-01T03:59:36;91452.78;;;5.96;76.36
52735;BME280;38631;47.572;10.704;2023-04-01T04:02:01;91454.50;;;6.00;76.33
52735;BME280;38631;47.572;10.704;2023-04-01T04:04:27;91446.94;;;6.08;74.96
52735;BME280;38631;47.572;10.704;2023-04-01T04:06:53;91448.66;;;6.12;75.10
52735;BME280;38631;47.572;10.704;2023-04-01T04:09:18;91470.53;;;6.13;75.37
52735;BME280;38631;47.572;10.704;2023-04-01T04:11:43;91466.84;;;6.22;76.56
52735;BME280;38631;47.572;10.704;2023-04-01T04:14:09;91473.09;;;6.04;77.96
52735;BME280;38631;47.572;10.704;2023-04-01T04:16:35;91477.97;;;5.88;79.84
52735;BME280;38631;47.572;10.704;2023-04-01T04:19:02;91470.66;;;5.85;79.84
52735;BME280;38631;47.572;10.704;2023-04-01T04:21:27;91486.38;;;5.68;80.15
52735;BME280;38631;47.572;10.704;2023-04-01T04:23:53;91462.75;;;5.85;79.03
52735;BME280;38631;47.572;10.704;2023-04-01T04:26:18;91469.22;;;5.79;79.57
52735;BME280;38631;47.572;10.704;2023-04-01T04:28:44;91479.94;;;5.82;78.63
52735;BME280;38631;47.572;10.704;2023-04-01T04:31:09;91480.38;;;5.76;78.77
52735;BME280;38631;47.572;10.704;2023-04-01T04:33:35;91469.06;;;5.75;78.17
52735;BME280;38631;47.572;10.704;2023-04-01T04:36:01;91477.66;;;5.90;79.15
52735;BME280;38631;47.572;10.704;2023-04-01T04:38:28;91470.34;;;5.87;78.99
52735;BME280;38631;47.572;10.704;2023-04-01T04:40:54;91482.09;;;5.80;77.88
52735;BME280;38631;47.572;10.704;2023-04-01T04:43:19;91481.47;;;5.97;77.17
52735;BME280;38631;47.572;10.704;2023-04-01T04:45:44;91465.06;;;5.87;77.57
52735;BME280;38631;47.572;10.704;2023-04-01T04:48:12;91471.78;;;5.93;77.68
52735;BME280;38631;47.572;10.704;2023-04-01T04:50:44;91467.25;;;5.84;77.42
52735;BME280;38631;47.572;10.704;2023-04-01T04:53:12;91476.22;;;5.83;77.30
52735;BME280;38631;47.572;10.704;2023-04-01T04:55:38;91483.22;;;5.88;78.13
52735;BME280;38631;47.572;10.704;2023-04-01T04:58:07;91476.19;;;5.97;78.40
52735;BME280;38631;47.572;10.704;2023-04-01T05:00:32;91480.44;;;5.84;77.38
52735;BME280;38631;47.572;10.704;2023-04-01T05:02:58;91477.97;;;5.88;77.60
52735;BME280;38631;47.572;10.704;2023-04-01T05:05:23;91472.69;;;5.88;77.25
52735;BME280;38631;47.572;10.704;2023-04-01T05:07:48;91478.25;;;5.87;76.34
52735;BME280;38631;47.572;10.704;2023-04-01T05:10:14;91483.63;;;5.95;77.05
52735;BME280;38631;47.572;10.704;2023-04-01T05:12:39;91467.25;;;5.84;76.04
52735;BME280;38631;47.572;10.704;2023-04-01T05:15:05;91467.56;;;5.83;76.53
52735;BME280;38631;47.572;10.704;2023-04-01T05:17:31;91478.72;;;5.89;76.47
52735;BME280;38631;47.572;10.704;2023-04-01T05:19:57;91479.22;;;5.91;75.91
52735;BME280;38631;47.572;10.704;2023-04-01T05:22:22;91485.81;;;6.02;75.27
52735;BME280;38631;47.572;10.704;2023-04-01T05:24:48;91472.22;;;5.86;74.67
52735;BME280;38631;47.572;10.704;2023-04-01T05:27:14;91469.16;;;5.93;74.22
52735;BME280;38631;47.572;10.704;2023-04-01T05:29:39;91465.81;;;6.01;73.48
52735;BME280;38631;47.572;10.704;2023-04-01T05:32:04;91462.75;;;6.08;73.99
52735;BME280;38631;47.572;10.704;2023-04-01T05:34:30;91461.22;;;6.15;72.27
52735;BME280;38631;47.572;10.704;2023-04-01T05:36:55;91454.84;;;6.08;72.61
52735;BME280;38631;47.572;10.704;2023-04-01T05:39:20;91464.16;;;6.14;72.22
52735;BME280;38631;47.572;10.704;2023-04-01T05:41:46;91455.97;;;6.15;71.76
52735;BME280;38631;47.572;10.704;2023-04-01T05:44:12;91460.53;;;6.32;72.67
52735;BME280;38631;47.572;10.704;2023-04-01T05:46:37;91457.22;;;6.26;69.99
52735;BME280;38631;47.572;10.704;2023-04-01T05:49:03;91456.03;;;6.33;69.71
52735;BME280;38631;47.572;10.704;2023-04-01T05:51:28;91439.88;;;6.25;70.47
52735;BME280;38631;47.572;10.704;2023-04-01T05:53:53;91451.03;;;6.22;71.14
52735;BME280;38631;47.572;10.704;2023-04-01T05:56:19;91456.03;;;6.33;70.83
52735;BME280;38631;47.572;10.704;2023-04-01T05:58:47;91452.16;;;6.30;71.42
52735;BME280;38631;47.572;10.704;2023-04-01T06:01:15;91447.03;;;6.34;72.15
52735;BME280;38631;47.572;10.704;2023-04-01T06:03:41;91450.47;;;6.43;72.54
52735;BME280;38631;47.572;10.704;2023-04-01T06:06:18;91444.28;;;6.47;73.35
52735;BME280;38631;47.572;10.704;2023-04-01T06:08:44;91434.16;;;6.32;73.75
52735;BME280;38631;47.572;10.704;2023-04-01T06:14:06;91446.28;;;6.42;71.59
52735;BME280;38631;47.572;10.704;2023-04-01T06:24:27;91485.94;;;6.28;74.98
52735;BME280;38631;47.572;10.704;2023-04-01T06:27:17;91495.56;;;6.33;76.19
52735;BME280;38631;47.572;10.704;2023-04-01T06:29:54;91499.44;;;6.04;78.90
52735;BME280;38631;47.572;10.704;2023-04-01T06:32:59;91497.13;;;6.02;80.03
52735;BME280;38631;47.572;10.704;2023-04-01T06:41:20;91484.00;;;5.89;80.61
52735;BME280;38631;47.572;10.704;2023-04-01T06:52:21;91494.53;;;6.11;79.33
52735;BME280;38631;47.572;10.704;2023-04-01T06:54:53;91499.69;;;6.16;78.43
52735;BME280;38631;47.572;10.704;2023-04-01T06:57:29;91490.34;;;6.10;78.54
52735;BME280;38631;47.572;10.704;2023-04-01T06:59:59;91504.53;;;6.23;78.02
52735;BME280;38631;47.572;10.704;2023-04-01T07:02:38;91497.56;;;6.27;77.80
52735;BME280;38631;47.572;10.704;2023-04-01T07:05:07;91492.41;;;6.22;77.36
52735;BME280;38631;47.572;10.704;2023-04-01T07:07:41;91494.94;;;6.27;75.95
52735;BME280;38631;47.572;10.704;2023-04-01T07:10:22;91488.28;;;6.30;77.73
52735;BME280;38631;47.572;10.704;2023-04-01T07:12:51;91489.69;;;6.36;76.97
52735;BME280;38631;47.572;10.704;2023-04-01T07:15:25;91485.97;;;6.37;76.94
52735;BME280;38631;47.572;10.704;2023-04-01T07:17:58;91476.38;;;6.41;76.03
52735;BME280;38631;47.572;10.704;2023-04-01T07:20:29;91488.38;;;6.56;76.39
52735;BME280;38631;47.572;10.704;2023-04-01T07:23:00;91490.56;;;6.71;76.39
52735;BME280;38631;47.572;10.704;2023-04-01T07:25:42;91486.69;;;6.68;76.75
52735;BME280;38631;47.572;10.704;2023-04-01T07:28:14;91487.03;;;6.84;76.63
52735;BME280;38631;47.572;10.704;2023-04-01T07:30:58;91491.06;;;6.73;74.89
52735;BME280;38631;47.572;10.704;2023-04-01T07:36:57;91489.25;;;7.00;73.58
52735;BME280;38631;47.572;10.704;2023-04-01T07:38:59;91499.81;;;7.08;75.33
52735;BME280;38631;47.572;10.704;2023-04-01T07:41:35;91502.75;;;6.98;74.05
52735;BME280;38631;47.572;10.704;2023-04-01T07:44:21;91501.19;;;6.97;74.02
52735;BME280;38631;47.572;10.704;2023-04-01T07:50:05;91506.34;;;7.11;76.95
52735;BME280;38631;47.572;10.704;2023-04-01T07:52:35;91509.31;;;7.27;75.11
52735;BME280;38631;47.572;10.704;2023-04-01T07:55:16;91509.16;;;7.41;76.25
52735;BME280;38631;47.572;10.704;2023-04-01T08:00:24;91499.84;;;7.43;74.13
52735;BME280;38631;47.572;10.704;2023-04-01T08:06:00;91497.03;;;7.83;74.24
52735;BME280;38631;47.572;10.704;2023-04-01T08:08:40;91494.19;;;7.97;73.39
52735;BME280;38631;47.572;10.704;2023-04-01T08:20:10;91460.69;;;8.27;67.78
52735;BME280;38631;47.572;10.704;2023-04-01T08:22:51;91466.56;;;8.41;67.22
52735;BME280;38631;47.572;10.704;2023-04-01T08:25:26;91475.50;;;8.67;68.17
52735;BME280;38631;47.572;10.704;2023-04-01T08:28:17;91475.44;;;8.46;66.47
52735;BME280;38631;47.572;10.704;2023-04-01T08:30:58;91481.50;;;8.37;66.90
52735;BME280;38631;47.572;10.704;2023-04-01T08:33:29;91476.53;;;8.36;65.81
52735;BME280;38631;47.572;10.704;2023-04-01T08:38:44;91472.78;;;8.46;68.65
52735;BME280;38631;47.572;10.704;2023-04-01T08:41:34;91481.22;;;8.30;67.88
52735;BME280;38631;47.572;10.704;2023-04-01T08:50:08;91490.28;;;8.12;67.25
52735;BME280;38631;47.572;10.704;2023-04-01T08:52:51;91483.78;;;8.00;66.90
52735;BME280;38631;47.572;10.704;2023-04-01T08:55:36;91484.84;;;8.08;68.63
52735;BME280;38631;47.572;10.704;2023-04-01T09:01:17;91473.56;;;8.37;64.95
52735;BME280;38631;47.572;10.704;2023-04-01T09:04:12;91471.56;;;8.43;64.44
52735;BME280;38631;47.572;10.704;2023-04-01T09:06:49;91471.50;;;8.52;65.28
52735;BME280;38631;47.572;10.704;2023-04-01T09:12:26;91465.16;;;8.44;65.19
52735;BME280;38631;47.572;10.704;2023-04-01T09:31:01;91457.50;;;8.51;61.77
52735;BME280;38631;47.572;10.704;2023-04-01T09:39:43;91468.00;;;8.69;59.08
52735;BME280;38631;47.572;10.704;2023-04-01T09:45:00;91469.06;;;8.76;62.50
52735;BME280;38631;47.572;10.704;2023-04-01T09:48:21;91459.59;;;8.75;62.34
52735;BME280;38631;47.572;10.704;2023-04-01T09:53:42;91472.13;;;8.87;62.96
52735;BME280;38631;47.572;10.704;2023-04-01T09:59:08;91487.00;;;9.00;63.02
52735;BME280;38631;47.572;10.704;2023-04-01T10:13:10;91470.59;;;9.07;62.60
52735;BME280;38631;47.572;10.704;2023-04-01T10:16:14;91453.09;;;9.15;62.45
52735;BME280;38631;47.572;10.704;2023-04-01T10:30:38;91469.16;;;8.89;61.17
52735;BME280;38631;47.572;10.704;2023-04-01T10:33:19;91464.19;;;8.87;62.31
52735;BME280;38631;47.572;10.704;2023-04-01T10:49:43;91471.38;;;9.07;65.55
52735;BME280;38631;47.572;10.704;2023-04-01T11:06:43;91482.69;;;9.17;65.03
52735;BME280;38631;47.572;10.704;2023-04-01T11:17:57;91503.66;;;8.71;66.35
52735;BME280;38631;47.572;10.704;2023-04-01T11:32:02;91505.44;;;8.58;68.60
52735;BME280;38631;47.572;10.704;2023-04-01T11:40:19;91521.66;;;8.48;67.90
52735;BME280;38631;47.572;10.704;2023-04-01T11:42:57;91518.84;;;8.44;67.56
52735;BME280;38631;47.572;10.704;2023-04-01T11:53:36;91521.31;;;8.50;66.99
52735;BME280;38631;47.572;10.704;2023-04-01T12:04:54;91528.88;;;8.13;67.14
52735;BME280;38631;47.572;10.704;2023-04-01T12:10:37;91522.19;;;8.15;68.53
52735;BME280;38631;47.572;10.704;2023-04-01T12:24:32;91532.59;;;8.12;69.96
52735;BME280;38631;47.572;10.704;2023-04-01T12:27:10;91530.88;;;8.16;69.46
52735;BME280;38631;47.572;10.704;2023-04-01T12:33:13;91522.66;;;8.09;68.79
52735;BME280;38631;47.572;10.704;2023-04-01T12:39:00;91521.53;;;8.10;68.03
52735;BME280;38631;47.572;10.704;2023-04-01T12:41:46;91516.75;;;8.03;67.78
52735;BME280;38631;47.572;10.704;2023-04-01T12:44:33;91526.09;;;8.00;67.38
52735;BME280;38631;47.572;10.704;2023-04-01T12:50:33;91521.41;;;7.97;66.90
52735;BME280;38631;47.572;10.704;2023-04-01T13:02:30;91528.56;;;8.06;68.80
52735;BME280;38631;47.572;10.704;2023-04-01T13:10:54;91539.28;;;8.09;68.75
52735;BME280;38631;47.572;10.704;2023-04-01T13:16:25;91519.41;;;8.03;69.31
52735;BME280;38631;47.572;10.704;2023-04-01T13:19:04;91521.44;;;7.80;68.51
52735;BME280;38631;47.572;10.704;2023-04-01T13:27:18;91521.25;;;8.11;69.35
52735;BME280;38631;47.572;10.704;2023-04-01T13:32:40;91514.06;;;8.12;69.52
52735;BME280;38631;47.572;10.704;2023-04-01T13:35:20;91494.31;;;8.18;68.68
52735;BME280;38631;47.572;10.704;2023-04-01T13:43:19;91501.56;;;8.47;66.06
52735;BME280;38631;47.572;10.704;2023-04-01T13:46:08;91500.81;;;8.38;66.50
52735;BME280;38631;47.572;10.704;2023-04-01T13:49:36;91523.53;;;8.30;67.75
52735;BME280;38631;47.572;10.704;2023-04-01T13:57:48;91508.06;;;8.58;66.34
52735;BME280;38631;47.572;10.704;2023-04-01T14:05:56;91522.81;;;8.68;67.28
52735;BME280;38631;47.572;10.704;2023-04-01T14:11:16;91524.38;;;8.69;66.28
52735;BME280;38631;47.572;10.704;2023-04-01T14:16:35;91543.06;;;8.64;64.89
52735;BME280;38631;47.572;10.704;2023-04-01T14:19:24;91546.94;;;8.75;64.21
52735;BME280;38631;47.572;10.704;2023-04-01T14:22:18;91540.88;;;8.66;61.72
52735;BME280;38631;47.572;10.704;2023-04-01T14:25:06;91544.34;;;8.58;64.46
52735;BME280;38631;47.572;10.704;2023-04-01T14:38:50;91531.78;;;8.84;64.58
52735;BME280;38631;47.572;10.704;2023-04-01T14:41:31;91531.31;;;8.82;63.82
52735;BME280;38631;47.572;10.704;2023-04-01T14:46:55;91536.47;;;8.79;64.24
52735;BME280;38631;47.572;10.704;2023-04-01T14:49:39;91520.19;;;8.68;63.59
52735;BME280;38631;47.572;10.704;2023-04-01T14:52:25;91530.44;;;8.70;63.01
52735;BME280;38631;47.572;10.704;2023-04-01T14:54:52;91532.59;;;8.68;63.24
52735;BME280;38631;47.572;10.704;2023-04-01T14:57:29;91547.25;;;8.65;65.10
52735;BME280;38631;47.572;10.704;2023-04-01T15:00:16;91556.59;;;8.62;66.15
52735;BME280;38631;47.572;10.704;2023-04-01T15:03:09;91571.28;;;8.51;64.49
52735;BME280;38631;47.572;10.704;2023-04-01T15:05:49;91568.94;;;8.50;63.53
52735;BME280;38631;47.572;10.704;2023-04-01T15:16:41;91581.75;;;7.78;73.33
52735;BME280;38631;47.572;10.704;2023-04-01T15:19:45;91572.41;;;7.89;69.26
52735;BME280;38631;47.572;10.704;2023-04-01T15:25:49;91583.00;;;7.98;71.81
52735;BME280;38631;47.572;10.704;2023-04-01T15:28:39;91561.38;;;8.13;68.83
52735;BME280;38631;47.572;10.704;2023-04-01T15:34:20;91570.88;;;8.06;69.52
52735;BME280;38631;47.572;10.704;2023-04-01T15:40:07;91570.38;;;8.21;65.89
52735;BME280;38631;47.572;10.704;2023-04-01T15:43:01;91559.16;;;8.33;65.40
52735;BME280;38631;47.572;10.704;2023-04-01T16:00:31;91572.09;;;8.17;64.42
52735;BME280;38631;47.572;10.704;2023-04-01T16:03:17;91574.56;;;8.31;64.49
52735;BME280;38631;47.572;10.704;2023-04-01T16:08:56;91582.81;;;8.20;64.39
52735;BME280;38631;47.572;10.704;2023-04-01T16:19:56;91593.41;;;7.86;67.40
52735;BME280;38631;47.572;10.704;2023-04-01T16:22:49;91575.69;;;7.86;67.92
52735;BME280;38631;47.572;10.704;2023-04-01T16:25:26;91585.63;;;7.72;68.62
52735;BME280;38631;47.572;10.704;2023-04-01T16:28:09;91574.28;;;7.71;68.24
52735;BME280;38631;47.572;10.704;2023-04-01T16:30:44;91577.41;;;7.73;68.88
52735;BME280;38631;47.572;10.704;2023-04-01T16:35:59;91564.81;;;7.79;68.94
52735;BME280;38631;47.572;10.704;2023-04-01T16:43:28;91579.13;;;7.95;69.51
52735;BME280;38631;47.572;10.704;2023-04-01T16:52:00;91584.06;;;7.79;65.56
52735;BME280;38631;47.572;10.704;2023-04-01T16:57:02;91580.97;;;7.69;68.67
52735;BME280;38631;47.572;10.704;2023-04-01T16:59:54;91580.50;;;7.67;69.78
52735;BME280;38631;47.572;10.704;2023-04-01T17:02:47;91580.00;;;7.39;71.29
52735;BME280;38631;47.572;10.704;2023-04-01T17:05:15;91583.25;;;7.35;71.58
52735;BME280;38631;47.572;10.704;2023-04-01T17:10:28;91593.06;;;7.44;73.38
52735;BME280;38631;47.572;10.704;2023-04-01T17:16:23;91611.97;;;7.28;74.66
52735;BME280;38631;47.572;10.704;2023-04-01T17:19:12;91619.91;;;7.37;75.45
52735;BME280;38631;47.572;10.704;2023-04-01T17:32:48;91632.41;;;6.43;85.75
52735;BME280;38631;47.572;10.704;2023-04-01T17:35:26;91635.94;;;6.61;86.79
52735;BME280;38631;47.572;10.704;2023-04-01T17:54:41;91670.09;;;5.98;89.64
52735;BME280;38631;47.572;10.704;2023-04-01T17:57:49;91667.47;;;5.84;90.09
52735;BME280;38631;47.572;10.704;2023-04-01T18:03:16;91661.06;;;5.77;92.53
52735;BME280;38631;47.572;10.704;2023-04-01T18:08:44;91661.44;;;6.43;90.40
52735;BME280;38631;47.572;10.704;2023-04-01T18:17:11;91669.34;;;6.43;89.17
52735;BME280;38631;47.572;10.704;2023-04-01T18:22:23;91664.09;;;6.52;88.86
52735;BME280;38631;47.572;10.704;2023-04-01T18:25:02;91664.31;;;6.33;89.25
52735;BME280;38631;47.572;10.704;2023-04-01T18:27:38;91666.75;;;6.29;90.00
52735;BME280;38631;47.572;10.704;2023-04-01T18:30:22;91671.38;;;6.46;90.09
52735;BME280;38631;47.572;10.704;2023-04-01T18:33:00;91668.81;;;6.32;90.23
52735;BME280;38631;47.572;10.704;2023-04-01T18:35:45;91673.19;;;5.87;92.51
52735;BME280;38631;47.572;10.704;2023-04-01T18:38:16;91671.53;;;6.04;91.94
52735;BME280;38631;47.572;10.704;2023-04-01T18:40:48;91681.38;;;6.35;91.03
52735;BME280;38631;47.572;10.704;2023-04-01T18:46:02;91674.19;;;6.04;92.16
52735;BME280;38631;47.572;10.704;2023-04-01T18:48:54;91693.47;;;6.36;89.98
52735;BME280;38631;47.572;10.704;2023-04-01T18:51:33;91692.41;;;6.37;89.94
52735;BME280;38631;47.572;10.704;2023-04-01T18:57:02;91695.56;;;6.25;91.58
52735;BME280;38631;47.572;10.704;2023-04-01T19:05:16;91684.06;;;5.85;90.17
52735;BME280;38631;47.572;10.704;2023-04-01T19:07:45;91692.63;;;6.04;88.55
52735;BME280;38631;47.572;10.704;2023-04-01T19:10:31;91676.34;;;6.25;87.27
52735;BME280;38631;47.572;10.704;2023-04-01T19:16:12;91696.66;;;6.24;87.87
52735;BME280;38631;47.572;10.704;2023-04-01T19:27:27;91702.88;;;6.28;86.63
52735;BME280;38631;47.572;10.704;2023-04-01T19:35:50;91696.03;;;6.05;85.57
52735;BME280;38631;47.572;10.704;2023-04-01T19:38:31;91695.16;;;5.96;87.76
52735;BME280;38631;47.572;10.704;2023-04-01T19:46:39;91689.31;;;5.99;86.94
52735;BME280;38631;47.572;10.704;2023-04-01T19:52:08;91679.94;;;5.93;87.58
52735;BME280;38631;47.572;10.704;2023-04-01T19:54:58;91693.09;;;6.06;87.33
52735;BME280;38631;47.572;10.704;2023-04-01T19:57:38;91693.19;;;6.01;88.24
52735;BME280;38631;47.572;10.704;2023-04-01T20:05:28;91701.22;;;5.82;87.87
52735;BME280;38631;47.572;10.704;2023-04-01T20:08:01;91702.53;;;5.57;88.64
52735;BME280;38631;47.572;10.704;2023-04-01T20:10:38;91705.66;;;5.46;89.96
52735;BME280;38631;47.572;10.704;2023-04-01T20:13:22;91712.94;;;5.76;88.33
52735;BME280;38631;47.572;10.704;2023-04-01T20:16:00;91704.19;;;5.67;88.31
52735;BME280;38631;47.572;10.704;2023-04-01T20:18:34;91703.03;;;5.59;86.94
52735;BME280;38631;47.572;10.704;2023-04-01T20:21:03;91706.72;;;5.58;89.12
52735;BME280;38631;47.572;10.704;2023-04-01T20:23:40;91705.72;;;5.68;87.86
52735;BME280;38631;47.572;10.704;2023-04-01T20:26:10;91694.03;;;5.60;88.33
52735;BME280;38631;47.572;10.704;2023-04-01T20:28:43;91710.41;;;5.71;88.22
52735;BME280;38631;47.572;10.704;2023-04-01T20:34:08;91704.63;;;5.83;86.80
52735;BME280;38631;47.572;10.704;2023-04-01T20:47:41;91711.22;;;5.58;88.47
52735;BME280;38631;47.572;10.704;2023-04-01T20:53:04;91704.97;;;5.68;87.65
52735;BME280;38631;47.572;10.704;2023-04-01T20:58:54;91719.59;;;5.32;88.39
52735;BME280;38631;47.572;10.704;2023-04-01T21:02:16;91720.19;;;5.57;87.30
52735;BME280;38631;47.572;10.704;2023-04-01T21:05:09;91728.28;;;5.60;86.79
52735;BME280;38631;47.572;10.704;2023-04-01T21:07:50;91723.69;;;5.25;86.30
52735;BME280;38631;47.572;10.704;2023-04-01T21:10:31;91725.84;;;5.50;86.01